createdAt,value
2018-08-27T00:00:33.025Z,1012.19
2018-08-27T00:01:33.006Z,1012.19
2018-08-27T00:02:32.981Z,1012.20
2018-08-27T00:03:32.958Z,1012.16
2018-08-27T00:04:32.933Z,1012.14
2018-08-27T00:05:32.911Z,1012.14
2018-08-27T00:06:32.888Z,1012.14
2018-08-27T00:07:32.865Z,1012.16
2018-08-27T00:08:32.841Z,1012.15
2018-08-27T00:09:32.818Z,1012.14
2018-08-27T00:10:32.795Z,1012.13
2018-08-27T00:11:32.771Z,1012.11
2018-08-27T00:12:32.748Z,1012.05
2018-08-27T00:13:32.724Z,1012.01
2018-08-27T00:14:32.703Z,1012.01
2018-08-27T00:15:32.679Z,1012.00
2018-08-27T00:16:32.655Z,1012.01
2018-08-27T00:17:32.632Z,1012.01
2018-08-27T00:18:32.610Z,1011.97
2018-08-27T00:19:32.587Z,1011.92
2018-08-27T00:20:32.563Z,1011.95
2018-08-27T00:21:32.540Z,1011.92
2018-08-27T00:22:32.517Z,1011.94
2018-08-27T00:23:32.493Z,1011.93
2018-08-27T00:24:32.470Z,1011.90
2018-08-27T00:25:32.494Z,1011.88
2018-08-27T00:26:32.423Z,1011.84
2018-08-27T00:27:32.404Z,1011.84
2018-08-27T00:28:32.378Z,1011.82
2018-08-27T00:29:32.358Z,1011.78
2018-08-27T00:30:32.333Z,1011.79
2018-08-27T00:31:32.313Z,1011.78
2018-08-27T00:32:32.286Z,1011.74
2018-08-27T00:33:32.262Z,1011.77
2018-08-27T00:34:32.240Z,1011.76
2018-08-27T00:35:32.219Z,1011.77
2018-08-27T00:36:32.195Z,1011.75
2018-08-27T00:37:32.169Z,1011.72
2018-08-27T00:38:32.147Z,1011.72
2018-08-27T00:39:32.123Z,1011.73
2018-08-27T00:40:32.101Z,1011.73
2018-08-27T00:41:32.078Z,1011.75
2018-08-27T00:42:32.055Z,1011.74
2018-08-27T00:43:32.031Z,1011.69
2018-08-27T00:44:32.009Z,1011.67
2018-08-27T00:45:31.986Z,1011.69
2018-08-27T00:46:31.965Z,1011.69
2018-08-27T00:47:31.940Z,1011.68
2018-08-27T00:48:31.916Z,1011.68
2018-08-27T00:49:31.894Z,1011.69
2018-08-27T00:50:31.870Z,1011.70
2018-08-27T00:51:31.848Z,1011.66
2018-08-27T00:52:31.824Z,1011.65
2018-08-27T00:53:31.805Z,1011.59
2018-08-27T00:54:31.777Z,1011.56
2018-08-27T00:55:31.754Z,1011.53
2018-08-27T00:56:31.733Z,1011.55
2018-08-27T00:57:31.708Z,1011.52
2018-08-27T00:58:31.686Z,1011.56
2018-08-27T00:59:31.662Z,1011.52
2018-08-27T01:00:31.638Z,1011.45
2018-08-27T01:01:31.617Z,1011.45
2018-08-27T01:02:31.594Z,1011.44
2018-08-27T01:03:31.573Z,1011.37
2018-08-27T01:04:31.545Z,1011.40
2018-08-27T01:05:31.524Z,1011.41
2018-08-27T01:06:31.503Z,1011.40
2018-08-27T01:07:31.479Z,1011.35
2018-08-27T01:08:31.456Z,1011.35
2018-08-27T01:09:31.432Z,1011.31
2018-08-27T01:10:31.410Z,1011.33
2018-08-27T01:11:31.386Z,1011.30
2018-08-27T01:12:31.363Z,1011.28
2018-08-27T01:13:31.339Z,1011.24
2018-08-27T01:14:31.318Z,1011.22
2018-08-27T01:15:31.294Z,1011.18
2018-08-27T01:16:31.271Z,1011.21
2018-08-27T01:17:31.248Z,1011.20
2018-08-27T01:18:31.225Z,1011.19
2018-08-27T01:19:31.205Z,1011.14
2018-08-27T01:20:31.179Z,1011.16
2018-08-27T01:21:31.156Z,1011.13
2018-08-27T01:22:31.240Z,1011.11
2018-08-27T01:23:31.110Z,1011.09
2018-08-27T01:24:31.087Z,1011.12
2018-08-27T01:25:31.065Z,1011.10
2018-08-27T01:26:31.043Z,1011.06
2018-08-27T01:27:31.019Z,1011.07
2018-08-27T01:28:30.995Z,1011.06
2018-08-27T01:29:30.972Z,1011.07
2018-08-27T01:30:30.953Z,1011.07
2018-08-27T01:31:30.927Z,1011.04
2018-08-27T01:32:30.903Z,1011.02
2018-08-27T01:33:30.881Z,1010.99
2018-08-27T01:34:30.860Z,1010.95
2018-08-27T01:35:30.834Z,1010.98
2018-08-27T01:36:30.810Z,1010.97
2018-08-27T01:37:30.788Z,1010.96
2018-08-27T01:38:30.766Z,1010.96
2018-08-27T01:39:30.744Z,1010.97
2018-08-27T01:40:30.720Z,1010.94
2018-08-27T01:41:30.699Z,1010.98
2018-08-27T01:42:30.673Z,1010.93
2018-08-27T01:43:30.653Z,1010.95
2018-08-27T01:44:30.631Z,1010.94
2018-08-27T01:45:30.606Z,1010.90
2018-08-27T01:46:30.583Z,1010.93
2018-08-27T01:47:30.560Z,1010.87
2018-08-27T01:48:30.537Z,1010.89
2018-08-27T01:49:30.515Z,1010.89
2018-08-27T01:50:30.492Z,1010.92
2018-08-27T01:51:30.470Z,1010.92
2018-08-27T01:52:30.445Z,1010.89
2018-08-27T01:53:30.424Z,1010.85
2018-08-27T01:54:30.401Z,1010.84
2018-08-27T01:55:30.378Z,1010.83
2018-08-27T01:56:30.355Z,1010.83
2018-08-27T01:57:30.332Z,1010.82
2018-08-27T01:58:30.313Z,1010.82
2018-08-27T01:59:30.285Z,1010.87
2018-08-27T02:00:30.262Z,1010.86
2018-08-27T02:01:30.241Z,1010.83
2018-08-27T02:02:30.218Z,1010.88
2018-08-27T02:03:30.195Z,1010.87
2018-08-27T02:04:30.171Z,1010.81
2018-08-27T02:05:30.151Z,1010.79
2018-08-27T02:06:30.127Z,1010.87
2018-08-27T02:07:30.104Z,1010.80
2018-08-27T02:08:30.081Z,1010.81
2018-08-27T02:09:30.057Z,1010.79
2018-08-27T02:10:30.036Z,1010.81
2018-08-27T02:11:30.013Z,1010.82
2018-08-27T02:12:29.989Z,1010.82
2018-08-27T02:13:29.965Z,1010.82
2018-08-27T02:14:29.943Z,1010.80
2018-08-27T02:15:29.921Z,1010.78
2018-08-27T02:16:29.901Z,1010.76
2018-08-27T02:17:29.875Z,1010.79
2018-08-27T02:18:29.851Z,1010.74
2018-08-27T02:19:29.828Z,1010.75
2018-08-27T02:20:29.806Z,1010.75
2018-08-27T02:21:29.781Z,1010.75
2018-08-27T02:22:29.758Z,1010.71
2018-08-27T02:23:29.741Z,1010.70
2018-08-27T02:24:29.714Z,1010.68
2018-08-27T02:25:29.691Z,1010.72
2018-08-27T02:26:29.669Z,1010.65
2018-08-27T02:27:29.649Z,1010.64
2018-08-27T02:28:29.624Z,1010.64
2018-08-27T02:29:29.599Z,1010.62
2018-08-27T02:30:29.577Z,1010.56
2018-08-27T02:31:29.554Z,1010.57
2018-08-27T02:32:29.531Z,1010.57
2018-08-27T02:33:29.507Z,1010.59
2018-08-27T02:34:29.485Z,1010.58
2018-08-27T02:35:29.464Z,1010.57
2018-08-27T02:36:29.438Z,1010.57
2018-08-27T02:37:29.417Z,1010.51
2018-08-27T02:38:29.394Z,1010.49
2018-08-27T02:39:29.372Z,1010.42
2018-08-27T02:40:29.346Z,1010.38
2018-08-27T02:41:29.328Z,1010.41
2018-08-27T02:42:29.304Z,1010.37
2018-08-27T02:43:29.280Z,1010.39
2018-08-27T02:44:29.255Z,1010.40
2018-08-27T02:45:29.233Z,1010.38
2018-08-27T02:46:29.211Z,1010.34
2018-08-27T02:47:29.187Z,1010.35
2018-08-27T02:48:29.165Z,1010.38
2018-08-27T02:49:29.142Z,1010.37
2018-08-27T02:50:29.127Z,1010.37
2018-08-27T02:51:29.097Z,1010.44
2018-08-27T02:52:29.074Z,1010.40
2018-08-27T02:53:29.051Z,1010.44
2018-08-27T02:54:29.029Z,1010.35
2018-08-27T02:55:29.007Z,1010.37
2018-08-27T02:56:28.981Z,1010.30
2018-08-27T02:57:28.959Z,1010.29
2018-08-27T02:58:28.937Z,1010.27
2018-08-27T02:59:28.917Z,1010.28
2018-08-27T03:00:28.890Z,1010.25
2018-08-27T03:01:28.875Z,1010.23
2018-08-27T03:02:28.843Z,1010.27
2018-08-27T03:03:28.822Z,1010.28
2018-08-27T03:04:28.797Z,1010.34
2018-08-27T03:05:28.774Z,1010.33
2018-08-27T03:06:28.752Z,1010.31
2018-08-27T03:07:28.733Z,1010.25
2018-08-27T03:08:28.703Z,1010.20
2018-08-27T03:09:28.684Z,1010.14
2018-08-27T03:10:28.657Z,1010.11
2018-08-27T03:11:28.643Z,1010.09
2018-08-27T03:12:28.611Z,1010.08
2018-08-27T03:13:28.587Z,1010.07
2018-08-27T03:14:28.565Z,1010.03
2018-08-27T03:15:28.540Z,1010.00
2018-08-27T03:16:28.515Z,1010.00
2018-08-27T03:17:28.493Z,1010.00
2018-08-27T03:18:28.541Z,1009.97
2018-08-27T03:19:28.452Z,1009.96
2018-08-27T03:20:28.421Z,1009.91
2018-08-27T03:21:28.397Z,1009.94
2018-08-27T03:22:28.378Z,1009.94
2018-08-27T03:23:28.351Z,1009.94
2018-08-27T03:24:28.327Z,1009.87
2018-08-27T03:25:28.304Z,1009.94
2018-08-27T03:26:28.280Z,1009.89
2018-08-27T03:27:28.256Z,1009.92
2018-08-27T03:28:28.232Z,1009.86
2018-08-27T03:29:28.209Z,1009.86
2018-08-27T03:30:28.187Z,1009.86
2018-08-27T03:31:28.162Z,1009.88
2018-08-27T03:32:28.139Z,1009.85
2018-08-27T03:33:28.114Z,1009.84
2018-08-27T03:34:28.095Z,1009.80
2018-08-27T03:35:28.068Z,1009.76
2018-08-27T03:36:28.045Z,1009.77
2018-08-27T03:37:28.022Z,1009.76
2018-08-27T03:38:27.996Z,1009.71
2018-08-27T03:39:27.974Z,1009.70
2018-08-27T03:40:28.008Z,1009.65
2018-08-27T03:41:27.926Z,1009.59
2018-08-27T03:42:27.903Z,1009.54
2018-08-27T03:43:27.879Z,1009.55
2018-08-27T03:44:27.855Z,1009.52
2018-08-27T03:45:27.830Z,1009.48
2018-08-27T03:46:27.808Z,1009.52
2018-08-27T03:47:27.788Z,1009.46
2018-08-27T03:48:27.797Z,1009.47
2018-08-27T03:49:27.736Z,1009.49
2018-08-27T03:50:27.718Z,1009.48
2018-08-27T03:51:27.690Z,1009.43
2018-08-27T03:52:27.666Z,1009.42
2018-08-27T03:53:27.649Z,1009.37
2018-08-27T03:54:27.619Z,1009.39
2018-08-27T03:55:27.595Z,1009.39
2018-08-27T03:56:27.572Z,1009.38
2018-08-27T03:57:27.549Z,1009.37
2018-08-27T03:58:27.526Z,1009.39
2018-08-27T03:59:27.503Z,1009.36
2018-08-27T04:00:27.480Z,1009.35
2018-08-27T04:01:27.455Z,1009.35
2018-08-27T04:02:27.433Z,1009.33
2018-08-27T04:03:27.409Z,1009.31
2018-08-27T04:04:27.386Z,1009.24
2018-08-27T04:05:27.425Z,1009.21
2018-08-27T04:06:27.339Z,1009.18
2018-08-27T04:07:27.314Z,1009.22
2018-08-27T04:08:27.289Z,1009.21
2018-08-27T04:09:27.267Z,1009.19
2018-08-27T04:10:27.244Z,1009.22
2018-08-27T04:11:27.226Z,1009.16
2018-08-27T04:12:27.195Z,1009.11
2018-08-27T04:13:27.173Z,1009.09
2018-08-27T04:14:27.150Z,1009.11
2018-08-27T04:15:27.127Z,1009.09
2018-08-27T04:16:27.103Z,1009.14
2018-08-27T04:17:27.083Z,1009.11
2018-08-27T04:18:27.056Z,1009.12
2018-08-27T04:19:27.033Z,1009.12
2018-08-27T04:20:27.008Z,1009.06
2018-08-27T04:21:26.985Z,1009.12
2018-08-27T04:22:26.962Z,1009.09
2018-08-27T04:23:26.939Z,1009.08
2018-08-27T04:24:26.917Z,1009.09
2018-08-27T04:25:26.892Z,1009.09
2018-08-27T04:26:26.869Z,1009.06
2018-08-27T04:27:26.845Z,1009.03
2018-08-27T04:28:26.824Z,1009.02
2018-08-27T04:29:26.800Z,1009.01
2018-08-27T04:30:26.780Z,1009.02
2018-08-27T04:31:26.754Z,1008.98
2018-08-27T04:32:26.730Z,1008.98
2018-08-27T04:33:26.705Z,1008.97
2018-08-27T04:34:26.685Z,1009.03
2018-08-27T04:35:26.662Z,1009.00
2018-08-27T04:36:26.637Z,1008.98
2018-08-27T04:37:26.615Z,1008.97
2018-08-27T04:38:26.593Z,1008.92
2018-08-27T04:39:26.570Z,1008.97
2018-08-27T04:40:26.545Z,1008.98
2018-08-27T04:41:26.521Z,1009.01
2018-08-27T04:42:26.545Z,1009.02
2018-08-27T04:43:26.474Z,1009.01
2018-08-27T04:44:26.452Z,1009.05
2018-08-27T04:45:26.428Z,1009.06
2018-08-27T04:46:26.405Z,1009.06
2018-08-27T04:47:26.386Z,1009.08
2018-08-27T04:48:26.358Z,1009.14
2018-08-27T04:49:26.338Z,1009.13
2018-08-27T04:50:26.314Z,1009.18
2018-08-27T04:51:26.293Z,1009.17
2018-08-27T04:52:26.267Z,1009.25
2018-08-27T04:53:26.247Z,1009.30
2018-08-27T04:54:26.220Z,1009.29
2018-08-27T04:55:26.205Z,1009.29
2018-08-27T04:56:26.174Z,1009.30
2018-08-27T04:57:26.154Z,1009.36
2018-08-27T04:58:26.129Z,1009.35
2018-08-27T04:59:26.107Z,1009.35
2018-08-27T05:00:26.083Z,1009.34
2018-08-27T05:01:26.064Z,1009.31
2018-08-27T05:02:26.037Z,1009.30
2018-08-27T05:03:26.019Z,1009.30
2018-08-27T05:04:25.991Z,1009.25
2018-08-27T05:05:25.968Z,1009.17
2018-08-27T05:06:25.946Z,1009.15
2018-08-27T05:07:25.925Z,1009.22
2018-08-27T05:08:25.899Z,1009.22
2018-08-27T05:09:25.878Z,1009.22
2018-08-27T05:10:25.854Z,1009.22
2018-08-27T05:11:25.831Z,1009.25
2018-08-27T05:12:25.807Z,1009.22
2018-08-27T05:13:25.791Z,1009.19
2018-08-27T05:14:25.763Z,1009.22
2018-08-27T05:15:25.740Z,1009.22
2018-08-27T05:16:25.720Z,1009.21
2018-08-27T05:17:25.694Z,1009.17
2018-08-27T05:18:25.671Z,1009.19
2018-08-27T05:19:25.649Z,1009.22
2018-08-27T05:20:25.625Z,1009.21
2018-08-27T05:21:25.603Z,1009.21
2018-08-27T05:22:25.579Z,1009.21
2018-08-27T05:23:25.557Z,1009.25
2018-08-27T05:24:25.534Z,1009.26
2018-08-27T05:25:25.511Z,1009.29
2018-08-27T05:26:25.488Z,1009.33
2018-08-27T05:27:25.466Z,1009.33
2018-08-27T05:28:25.467Z,1009.38
2018-08-27T05:29:25.423Z,1009.37
2018-08-27T05:30:25.427Z,1009.37
2018-08-27T05:31:25.392Z,1009.31
2018-08-27T05:32:25.351Z,1009.31
2018-08-27T05:33:25.328Z,1009.33
2018-08-27T05:34:25.328Z,1009.35
2018-08-27T05:35:25.284Z,1009.35
2018-08-27T05:36:25.260Z,1009.35
2018-08-27T05:37:25.239Z,1009.36
2018-08-27T05:38:25.225Z,1009.38
2018-08-27T05:39:25.196Z,1009.40
2018-08-27T05:40:25.169Z,1009.40
2018-08-27T05:41:25.148Z,1009.41
2018-08-27T05:42:25.125Z,1009.36
2018-08-27T05:43:25.102Z,1009.39
2018-08-27T05:44:25.162Z,1009.35
2018-08-27T05:45:25.057Z,1009.38
2018-08-27T05:46:25.036Z,1009.33
2018-08-27T05:47:25.013Z,1009.35
2018-08-27T05:48:24.989Z,1009.34
2018-08-27T05:49:24.966Z,1009.30
2018-08-27T05:50:24.945Z,1009.35
2018-08-27T05:51:24.921Z,1009.41
2018-08-27T05:52:24.898Z,1009.45
2018-08-27T05:53:24.881Z,1009.42
2018-08-27T05:54:24.857Z,1009.42
2018-08-27T05:55:24.831Z,1009.37
2018-08-27T05:56:24.810Z,1009.43
2018-08-27T05:57:24.786Z,1009.47
2018-08-27T05:58:24.765Z,1009.51
2018-08-27T05:59:24.743Z,1009.52
2018-08-27T06:00:24.720Z,1009.57
2018-08-27T06:01:24.712Z,1009.55
2018-08-27T06:02:24.676Z,1009.62
2018-08-27T06:03:24.653Z,1009.57
2018-08-27T06:04:24.630Z,1009.53
2018-08-27T06:05:24.607Z,1009.56
2018-08-27T06:06:24.585Z,1009.49
2018-08-27T06:07:24.563Z,1009.52
2018-08-27T06:08:24.538Z,1009.45
2018-08-27T06:09:24.517Z,1009.47
2018-08-27T06:10:24.496Z,1009.47
2018-08-27T06:11:24.472Z,1009.46
2018-08-27T06:12:24.451Z,1009.47
2018-08-27T06:13:24.427Z,1009.49
2018-08-27T06:14:24.403Z,1009.42
2018-08-27T06:15:24.382Z,1009.47
2018-08-27T06:16:24.517Z,1009.44
2018-08-27T06:17:24.335Z,1009.42
2018-08-27T06:18:24.311Z,1009.33
2018-08-27T06:19:24.288Z,1009.33
2018-08-27T06:20:24.264Z,1009.31
2018-08-27T06:21:24.241Z,1009.30
2018-08-27T06:22:24.238Z,1009.20
2018-08-27T06:23:24.197Z,1009.20
2018-08-27T06:24:24.174Z,1009.19
2018-08-27T06:25:24.156Z,1009.10
2018-08-27T06:26:24.128Z,1009.14
2018-08-27T06:27:24.105Z,1009.13
2018-08-27T06:28:24.081Z,1009.11
2018-08-27T06:29:24.061Z,1009.04
2018-08-27T06:30:24.048Z,1009.03
2018-08-27T06:31:24.013Z,1008.98
2018-08-27T06:32:24.003Z,1008.96
2018-08-27T06:33:23.967Z,1008.92
2018-08-27T06:34:23.944Z,1008.87
2018-08-27T06:35:23.920Z,1008.88
2018-08-27T06:36:23.898Z,1008.87
2018-08-27T06:37:23.875Z,1008.87
2018-08-27T06:38:23.857Z,1008.89
2018-08-27T06:39:23.831Z,1008.87
2018-08-27T06:40:23.806Z,1008.89
2018-08-27T06:41:23.785Z,1008.87
2018-08-27T06:42:23.766Z,1008.88
2018-08-27T06:43:23.740Z,1008.92
2018-08-27T06:44:23.807Z,1008.93
2018-08-27T06:45:23.695Z,1008.90
2018-08-27T06:46:23.673Z,1008.86
2018-08-27T06:47:23.650Z,1008.91
2018-08-27T06:48:23.627Z,1008.89
2018-08-27T06:49:23.604Z,1008.84
2018-08-27T06:50:23.582Z,1008.85
2018-08-27T06:51:23.560Z,1008.77
2018-08-27T06:52:23.538Z,1008.75
2018-08-27T06:53:23.514Z,1008.69
2018-08-27T06:54:23.491Z,1008.60
2018-08-27T06:55:23.470Z,1008.58
2018-08-27T06:56:23.448Z,1008.52
2018-08-27T06:57:23.423Z,1008.50
2018-08-27T06:58:23.401Z,1008.53
2018-08-27T06:59:23.379Z,1008.51
2018-08-27T07:00:23.357Z,1008.51
2018-08-27T07:01:23.334Z,1008.48
2018-08-27T07:02:23.370Z,1008.44
2018-08-27T07:03:23.291Z,1008.41
2018-08-27T07:04:23.265Z,1008.41
2018-08-27T07:05:23.245Z,1008.43
2018-08-27T07:06:23.222Z,1008.44
2018-08-27T07:07:23.200Z,1008.43
2018-08-27T07:08:23.177Z,1008.39
2018-08-27T07:09:23.155Z,1008.40
2018-08-27T07:10:23.135Z,1008.40
2018-08-27T07:11:23.114Z,1008.43
2018-08-27T07:12:23.090Z,1008.41
2018-08-27T07:13:23.067Z,1008.42
2018-08-27T07:14:23.046Z,1008.44
2018-08-27T07:15:23.025Z,1008.46
2018-08-27T07:16:23.002Z,1008.51
2018-08-27T07:17:22.986Z,1008.59
2018-08-27T07:18:22.959Z,1008.63
2018-08-27T07:19:22.938Z,1008.68
2018-08-27T07:20:22.989Z,1008.62
2018-08-27T07:21:22.895Z,1008.66
2018-08-27T07:22:22.869Z,1008.68
2018-08-27T07:23:22.849Z,1008.73
2018-08-27T07:24:22.826Z,1008.71
2018-08-27T07:25:22.803Z,1008.68
2018-08-27T07:26:22.782Z,1008.62
2018-08-27T07:27:22.763Z,1008.57
2018-08-27T07:28:22.737Z,1008.53
2018-08-27T07:29:22.714Z,1008.51
2018-08-27T07:30:22.693Z,1008.45
2018-08-27T07:31:22.670Z,1008.40
2018-08-27T07:32:22.646Z,1008.42
2018-08-27T07:33:22.624Z,1008.43
2018-08-27T07:34:22.601Z,1008.39
2018-08-27T07:35:22.579Z,1008.43
2018-08-27T07:36:22.560Z,1008.48
2018-08-27T07:37:22.537Z,1008.48
2018-08-27T07:38:22.513Z,1008.45
2018-08-27T07:39:22.489Z,1008.42
2018-08-27T07:40:22.466Z,1008.40
2018-08-27T07:41:22.443Z,1008.45
2018-08-27T07:42:22.422Z,1008.44
2018-08-27T07:43:22.441Z,1008.46
2018-08-27T07:44:22.376Z,1008.37
2018-08-27T07:45:22.355Z,1008.39
2018-08-27T07:46:22.336Z,1008.40
2018-08-27T07:47:22.313Z,1008.39
2018-08-27T07:48:22.288Z,1008.40
2018-08-27T07:49:22.266Z,1008.41
2018-08-27T07:50:22.243Z,1008.39
2018-08-27T07:51:22.228Z,1008.43
2018-08-27T07:52:22.201Z,1008.43
2018-08-27T07:53:22.179Z,1008.43
2018-08-27T07:54:22.155Z,1008.47
2018-08-27T07:55:22.136Z,1008.46
2018-08-27T07:56:22.111Z,1008.46
2018-08-27T07:57:22.090Z,1008.45
2018-08-27T07:58:22.107Z,1008.45
2018-08-27T07:59:22.051Z,1008.41
2018-08-27T08:00:22.025Z,1008.39
2018-08-27T08:01:22.004Z,1008.36
2018-08-27T08:02:21.991Z,1008.41
2018-08-27T08:03:21.961Z,1008.46
2018-08-27T08:04:21.939Z,1008.43
2018-08-27T08:05:21.930Z,1008.43
2018-08-27T08:06:21.898Z,1008.45
2018-08-27T08:07:21.943Z,1008.50
2018-08-27T08:08:21.855Z,1008.45
2018-08-27T08:09:21.835Z,1008.43
2018-08-27T08:10:21.813Z,1008.44
2018-08-27T08:11:21.794Z,1008.39
2018-08-27T08:12:21.771Z,1008.39
2018-08-27T08:13:21.750Z,1008.37
2018-08-27T08:14:21.728Z,1008.42
2018-08-27T08:15:21.711Z,1008.47
2018-08-27T08:16:21.685Z,1008.46
2018-08-27T08:17:21.664Z,1008.50
2018-08-27T08:18:21.646Z,1008.45
2018-08-27T08:19:21.625Z,1008.46
2018-08-27T08:20:21.603Z,1008.46
2018-08-27T08:21:21.581Z,1008.50
2018-08-27T08:22:21.561Z,1008.53
2018-08-27T08:23:21.539Z,1008.55
2018-08-27T08:24:21.520Z,1008.57
2018-08-27T08:25:21.498Z,1008.54
2018-08-27T08:26:21.481Z,1008.62
2018-08-27T08:27:21.457Z,1008.50
2018-08-27T08:28:21.434Z,1008.62
2018-08-27T08:29:21.414Z,1008.65
2018-08-27T08:30:21.394Z,1008.64
2018-08-27T08:31:21.374Z,1008.58
2018-08-27T08:32:21.352Z,1008.74
2018-08-27T08:33:21.505Z,1008.57
2018-08-27T08:34:21.311Z,1008.57
2018-08-27T08:35:21.291Z,1008.58
2018-08-27T08:36:21.271Z,1008.61
2018-08-27T08:37:21.249Z,1008.58
2018-08-27T08:38:21.229Z,1008.56
2018-08-27T08:39:21.209Z,1008.55
2018-08-27T08:40:21.188Z,1008.54
2018-08-27T08:41:21.166Z,1008.53
2018-08-27T08:42:21.146Z,1008.49
2018-08-27T08:43:21.126Z,1008.48
2018-08-27T08:44:21.109Z,1008.46
2018-08-27T08:45:21.084Z,1008.52
2018-08-27T08:46:21.065Z,1008.51
2018-08-27T08:47:21.045Z,1008.47
2018-08-27T08:48:21.023Z,1008.50
2018-08-27T08:49:21.003Z,1008.44
2018-08-27T08:50:20.983Z,1008.42
2018-08-27T08:51:20.967Z,1008.51
2018-08-27T08:52:20.943Z,1008.47
2018-08-27T08:53:20.958Z,1008.47
2018-08-27T08:54:20.900Z,1008.43
2018-08-27T08:55:20.879Z,1008.45
2018-08-27T08:56:20.857Z,1008.40
2018-08-27T08:57:20.839Z,1008.42
2018-08-27T08:58:20.818Z,1008.42
2018-08-27T08:59:20.801Z,1008.43
2018-08-27T09:00:20.776Z,1008.44
2018-08-27T09:01:20.810Z,1008.49
2018-08-27T09:02:20.739Z,1008.55
2018-08-27T09:03:20.718Z,1008.53
2018-08-27T09:04:20.695Z,1008.52
2018-08-27T09:05:20.676Z,1008.48
2018-08-27T09:06:20.691Z,1008.72
2018-08-27T09:07:20.635Z,1008.64
2018-08-27T09:08:20.757Z,1008.68
2018-08-27T09:09:20.596Z,1008.67
2018-08-27T09:10:20.574Z,1008.52
2018-08-27T09:11:20.555Z,1008.71
2018-08-27T09:12:20.532Z,1008.74
2018-08-27T09:13:20.513Z,1008.81
2018-08-27T09:14:20.494Z,1008.68
2018-08-27T09:15:20.475Z,1008.71
2018-08-27T09:16:20.469Z,1008.76
2018-08-27T09:17:20.445Z,1008.73
2018-08-27T09:18:20.410Z,1008.72
2018-08-27T09:19:20.389Z,1008.86
2018-08-27T09:20:20.368Z,1008.85
2018-08-27T09:21:20.348Z,1008.87
2018-08-27T09:22:20.331Z,1008.93
2018-08-27T09:23:20.308Z,1008.88
2018-08-27T09:24:20.285Z,1008.92
2018-08-27T09:25:20.264Z,1008.94
2018-08-27T09:26:20.243Z,1008.93
2018-08-27T09:27:20.223Z,1008.93
2018-08-27T09:28:20.200Z,1008.95
2018-08-27T09:29:20.178Z,1008.92
2018-08-27T09:30:20.158Z,1008.93
2018-08-27T09:31:20.204Z,1008.96
2018-08-27T09:32:20.117Z,1008.98
2018-08-27T09:33:20.094Z,1008.98
2018-08-27T09:34:20.073Z,1008.95
2018-08-27T09:35:20.051Z,1009.00
2018-08-27T09:36:20.030Z,1009.06
2018-08-27T09:37:20.009Z,1009.01
2018-08-27T09:38:19.986Z,1009.02
2018-08-27T09:39:19.966Z,1009.05
2018-08-27T09:40:19.945Z,1009.06
2018-08-27T09:41:19.922Z,1009.02
2018-08-27T09:42:19.903Z,1008.97
2018-08-27T09:43:19.878Z,1009.05
2018-08-27T09:44:19.858Z,1009.05
2018-08-27T09:45:19.836Z,1009.01
2018-08-27T09:46:19.813Z,1009.05
2018-08-27T09:47:19.792Z,1009.09
2018-08-27T09:48:19.770Z,1009.02
2018-08-27T09:49:19.747Z,1009.01
2018-08-27T09:50:19.726Z,1008.97
2018-08-27T09:51:19.703Z,1009.00
2018-08-27T09:52:19.680Z,1009.00
2018-08-27T09:53:19.659Z,1009.03
2018-08-27T09:54:19.639Z,1009.01
2018-08-27T09:55:19.616Z,1009.04
2018-08-27T09:56:19.593Z,1009.01
2018-08-27T09:57:19.574Z,1009.02
2018-08-27T09:58:19.550Z,1009.01
2018-08-27T09:59:19.529Z,1008.99
2018-08-27T10:00:19.508Z,1009.06
2018-08-27T10:01:19.485Z,1009.02
2018-08-27T10:02:19.469Z,1009.05
2018-08-27T10:03:19.442Z,1009.03
2018-08-27T10:04:19.421Z,1009.03
2018-08-27T10:05:19.396Z,1008.98
2018-08-27T10:06:19.377Z,1009.02
2018-08-27T10:07:19.354Z,1009.02
2018-08-27T10:08:19.334Z,1009.05
2018-08-27T10:09:19.311Z,1009.03
2018-08-27T10:10:19.290Z,1009.06
2018-08-27T10:11:19.276Z,1009.04
2018-08-27T10:12:19.245Z,1009.07
2018-08-27T10:13:19.223Z,1009.01
2018-08-27T10:14:19.202Z,1009.04
2018-08-27T10:15:19.181Z,1009.05
2018-08-27T10:16:19.156Z,1009.08
2018-08-27T10:17:19.136Z,1009.10
2018-08-27T10:18:19.113Z,1009.09
2018-08-27T10:19:19.093Z,1009.07
2018-08-27T10:20:19.071Z,1009.08
2018-08-27T10:21:19.047Z,1009.11
2018-08-27T10:22:19.173Z,1009.07
2018-08-27T10:23:19.003Z,1009.11
2018-08-27T10:24:18.979Z,1009.14
2018-08-27T10:25:18.960Z,1009.12
2018-08-27T10:26:18.951Z,1009.12
2018-08-27T10:27:18.914Z,1009.11
2018-08-27T10:28:18.891Z,1009.05
2018-08-27T10:29:18.870Z,1009.15
2018-08-27T10:30:18.847Z,1009.12
2018-08-27T10:31:18.825Z,1009.16
2018-08-27T10:32:18.801Z,1009.10
2018-08-27T10:33:18.778Z,1009.13
2018-08-27T10:34:18.756Z,1009.14
2018-08-27T10:35:18.735Z,1009.17
2018-08-27T10:36:18.711Z,1009.14
2018-08-27T10:37:18.798Z,1009.18
2018-08-27T10:38:18.666Z,1009.16
2018-08-27T10:39:18.643Z,1009.15
2018-08-27T10:40:18.620Z,1009.17
2018-08-27T10:41:18.600Z,1009.12
2018-08-27T10:42:18.574Z,1009.17
2018-08-27T10:43:18.553Z,1009.19
2018-08-27T10:44:18.528Z,1009.17
2018-08-27T10:45:18.510Z,1009.20
2018-08-27T10:46:18.483Z,1009.20
2018-08-27T10:47:18.463Z,1009.26
2018-08-27T10:48:18.438Z,1009.24
2018-08-27T10:49:18.416Z,1009.24
2018-08-27T10:50:18.439Z,1009.23
2018-08-27T10:51:18.370Z,1009.24
2018-08-27T10:52:18.346Z,1009.26
2018-08-27T10:53:18.323Z,1009.23
2018-08-27T10:54:18.301Z,1009.23
2018-08-27T10:55:18.278Z,1009.26
2018-08-27T10:56:18.255Z,1009.24
2018-08-27T10:57:18.233Z,1009.24
2018-08-27T10:58:18.231Z,1009.21
2018-08-27T10:59:18.188Z,1009.15
2018-08-27T11:00:18.166Z,1009.23
2018-08-27T11:01:18.141Z,1009.21
2018-08-27T11:02:18.119Z,1009.23
2018-08-27T11:03:18.097Z,1009.19
2018-08-27T11:04:18.073Z,1009.20
2018-08-27T11:05:18.052Z,1009.18
2018-08-27T11:06:18.028Z,1009.20
2018-08-27T11:07:18.006Z,1009.24
2018-08-27T11:08:17.986Z,1009.20
2018-08-27T11:09:17.962Z,1009.29
2018-08-27T11:10:17.940Z,1009.26
2018-08-27T11:11:17.918Z,1009.21
2018-08-27T11:12:17.895Z,1009.26
2018-08-27T11:13:17.872Z,1009.20
2018-08-27T11:14:17.851Z,1009.20
2018-08-27T11:15:17.832Z,1009.23
2018-08-27T11:16:17.811Z,1009.22
2018-08-27T11:17:17.785Z,1009.21
2018-08-27T11:18:17.764Z,1009.23
2018-08-27T11:19:17.742Z,1009.17
2018-08-27T11:20:17.795Z,1009.21
2018-08-27T11:21:17.698Z,1009.19
2018-08-27T11:22:17.676Z,1009.24
2018-08-27T11:23:17.658Z,1009.24
2018-08-27T11:24:17.632Z,1009.24
2018-08-27T11:25:17.611Z,1009.27
2018-08-27T11:26:17.626Z,1009.27
2018-08-27T11:27:17.571Z,1009.28
2018-08-27T11:28:17.546Z,1009.34
2018-08-27T11:29:17.525Z,1009.35
2018-08-27T11:30:17.505Z,1009.35
2018-08-27T11:31:17.483Z,1009.40
2018-08-27T11:32:17.461Z,1009.35
2018-08-27T11:33:17.439Z,1009.37
2018-08-27T11:34:17.419Z,1009.35
2018-08-27T11:35:17.398Z,1009.37
2018-08-27T11:36:17.377Z,1009.37
2018-08-27T11:37:17.356Z,1009.37
2018-08-27T11:38:17.335Z,1009.37
2018-08-27T11:39:17.315Z,1009.36
2018-08-27T11:40:17.293Z,1009.35
2018-08-27T11:41:17.278Z,1009.33
2018-08-27T11:42:17.253Z,1009.35
2018-08-27T11:43:17.254Z,1009.35
2018-08-27T11:44:17.212Z,1009.41
2018-08-27T11:45:17.194Z,1009.37
2018-08-27T11:46:17.173Z,1009.44
2018-08-27T11:47:17.154Z,1009.40
2018-08-27T11:48:17.162Z,1009.38
2018-08-27T11:49:17.112Z,1009.38
2018-08-27T11:50:17.236Z,1009.38
2018-08-27T11:51:17.075Z,1009.35
2018-08-27T11:52:17.053Z,1009.37
2018-08-27T11:53:17.035Z,1009.34
2018-08-27T11:54:17.016Z,1009.37
2018-08-27T11:55:17.005Z,1009.42
2018-08-27T11:56:16.977Z,1009.35
2018-08-27T11:57:16.957Z,1009.40
2018-08-27T11:58:16.940Z,1009.38
2018-08-27T11:59:16.922Z,1009.35
2018-08-27T12:00:16.901Z,1009.40
2018-08-27T12:01:16.923Z,1009.43
2018-08-27T12:02:16.938Z,1009.36
2018-08-27T12:03:16.844Z,1009.43
2018-08-27T12:04:16.825Z,1009.38
2018-08-27T12:05:16.807Z,1009.41